sensor_id;sensor_type;location;lat;lon;timestamp;pressure;altitude;pressure_sealevel;temperature;humidity
18436;BME280;9346;52.006;4.720;2023-02-21T00:01:45;102006.38;;;9.59;100.00
18436;BME280;9346;52.006;4.720;2023-02-21T00:04:31;102013.31;;;9.62;100.00
18436;BME280;9346;52.006;4.720;2023-02-21T00:07:16;101998.72;;;9.61;100.00
18436;BME280;9346;52.006;4.720;2023-02-21T00:10:00;102000.66;;;9.61;100.00
18436;BME280;9346;52.006;4.720;2023-02-21T00:12:44;102016.06;;;9.62;100.00
18436;BME280;9346;52.006;4.720;2023-02-21T00:15:28;102010.81;;;9.60;100.00
18436;BME280;9346;52.006;4.720;2023-02-21T00:18:12;102012.13;;;9.58;100.00
18436;BME280;9346;52.006;4.720;2023-02-21T00:20:57;102011.03;;;9.59;100.00
18436;BME280;9346;52.006;4.720;2023-02-21T00:23:42;102016.53;;;9.59;100.00
18436;BME280;9346;52.006;4.720;2023-02-21T00:26:26;102017.97;;;9.61;100.00
18436;BME280;9346;52.006;4.720;2023-02-21T00:29:10;102016.06;;;9.62;100.00
18436;BME280;9346;52.006;4.720;2023-02-21T00:31:54;102014.41;;;9.61;100.00
18436;BME280;9346;52.006;4.720;2023-02-21T00:34:38;102019.91;;;9.61;100.00
18436;BME280;9346;52.006;4.720;2023-02-21T00:37:23;102006.88;;;9.56;100.00
18436;BME280;9346;52.006;4.720;2023-02-21T00:40:10;102012.59;;;9.55;100.00
18436;BME280;9346;52.006;4.720;2023-02-21T00:42:54;102005.16;;;9.55;100.00
18436;BME280;9346;52.006;4.720;2023-02-21T00:45:38;102017.88;;;9.56;100.00
18436;BME280;9346;52.006;4.720;2023-02-21T00:48:23;102017.63;;;9.58;100.00
18436;BME280;9346;52.006;4.720;2023-02-21T00:51:07;102008.28;;;9.59;100.00
18436;BME280;9346;52.006;4.720;2023-02-21T00:53:53;102004.44;;;9.60;100.00
18436;BME280;9346;52.006;4.720;2023-02-21T00:56:38;102002.31;;;9.62;100.00
18436;BME280;9346;52.006;4.720;2023-02-21T00:59:22;102000.41;;;9.62;100.00
18436;BME280;9346;52.006;4.720;2023-02-21T01:02:06;102000.41;;;9.62;100.00
18436;BME280;9346;52.006;4.720;2023-02-21T01:04:50;101991.91;;;9.64;100.00
18436;BME280;9346;52.006;4.720;2023-02-21T01:07:34;101995.25;;;9.66;100.00
18436;BME280;9346;52.006;4.720;2023-02-21T01:10:20;101991.91;;;9.64;100.00
18436;BME280;9346;52.006;4.720;2023-02-21T01:13:04;101991.91;;;9.64;100.00
18436;BME280;9346;52.006;4.720;2023-02-21T01:15:48;101988.09;;;9.65;100.00
18436;BME280;9346;52.006;4.720;2023-02-21T01:18:33;101985.81;;;9.62;100.00
18436;BME280;9346;52.006;4.720;2023-02-21T01:21:18;101986.91;;;9.61;100.00
18436;BME280;9346;52.006;4.720;2023-02-21T01:24:03;101981.97;;;9.63;100.00
18436;BME280;9346;52.006;4.720;2023-02-21T01:26:49;101978.75;;;9.66;100.00
18436;BME280;9346;52.006;4.720;2023-02-21T01:29:33;101984.00;;;9.67;100.00
18436;BME280;9346;52.006;4.720;2023-02-21T01:32:17;101977.41;;;9.68;100.00
18436;BME280;9346;52.006;4.720;2023-02-21T01:35:02;101972.19;;;9.67;100.00
18436;BME280;9346;52.006;4.720;2023-02-21T01:37:46;101968.34;;;9.68;100.00
18436;BME280;9346;52.006;4.720;2023-02-21T01:40:30;101955.41;;;9.68;100.00
18436;BME280;9346;52.006;4.720;2023-02-21T01:43:19;101960.09;;;9.68;100.00
18436;BME280;9346;52.006;4.720;2023-02-21T01:46:04;101962.84;;;9.68;100.00
18436;BME280;9346;52.006;4.720;2023-02-21T01:48:50;101959.59;;;9.71;100.00
18436;BME280;9346;52.006;4.720;2023-02-21T01:51:38;101958.53;;;9.72;100.00
18436;BME280;9346;52.006;4.720;2023-02-21T01:54:24;101958.53;;;9.72;100.00
18436;BME280;9346;52.006;4.720;2023-02-21T01:57:09;101957.19;;;9.74;100.00
18436;BME280;9346;52.006;4.720;2023-02-21T01:59:56;101948.13;;;9.74;100.00
18436;BME280;9346;52.006;4.720;2023-02-21T02:02:49;101954.44;;;9.74;100.00
18436;BME280;9346;52.006;4.720;2023-02-21T02:05:36;101954.44;;;9.74;100.00
18436;BME280;9346;52.006;4.720;2023-02-21T02:08:26;101952.78;;;9.73;100.00
18436;BME280;9346;52.006;4.720;2023-02-21T02:11:36;101953.63;;;9.74;100.00
18436;BME280;9346;52.006;4.720;2023-02-21T02:14:44;101951.94;;;9.73;100.00
18436;BME280;9346;52.006;4.720;2023-02-21T02:17:24;101953.00;;;9.72;100.00
18436;BME280;9346;52.006;4.720;2023-02-21T02:20:19;101948.38;;;9.72;100.00
18436;BME280;9346;52.006;4.720;2023-02-21T02:26:30;101950.88;;;9.74;100.00
18436;BME280;9346;52.006;4.720;2023-02-21T02:29:20;101945.84;;;9.71;100.00
18436;BME280;9346;52.006;4.720;2023-02-21T02:32:05;101950.28;;;9.72;100.00
18436;BME280;9346;52.006;4.720;2023-02-21T02:34:54;101948.13;;;9.74;100.00
18436;BME280;9346;52.006;4.720;2023-02-21T02:37:29;101939.88;;;9.74;100.00
18436;BME280;9346;52.006;4.720;2023-02-21T02:40:02;101945.38;;;9.74;100.00
18436;BME280;9346;52.006;4.720;2023-02-21T02:42:39;101938.16;;;9.73;100.00
18436;BME280;9346;52.006;4.720;2023-02-21T02:45:16;101940.91;;;9.73;100.00
18436;BME280;9346;52.006;4.720;2023-02-21T02:47:47;101936.03;;;9.75;100.00
18436;BME280;9346;52.006;4.720;2023-02-21T02:50:19;101941.03;;;9.78;100.00
18436;BME280;9346;52.006;4.720;2023-02-21T02:52:50;101938.06;;;9.79;100.00
18436;BME280;9346;52.006;4.720;2023-02-21T02:55:28;101932.31;;;9.81;100.00
18436;BME280;9346;52.006;4.720;2023-02-21T02:57:58;101936.72;;;9.82;100.00
18436;BME280;9346;52.006;4.720;2023-02-21T03:00:26;101928.47;;;9.82;100.00
18436;BME280;9346;52.006;4.720;2023-02-21T03:03:03;101930.13;;;9.83;100.00
18436;BME280;9346;52.006;4.720;2023-02-21T03:06:00;101927.50;;;9.88;100.00
18436;BME280;9346;52.006;4.720;2023-02-21T03:08:37;101920.09;;;9.88;100.00
18436;BME280;9346;52.006;4.720;2023-02-21T03:11:12;101922.00;;;9.88;100.00
18436;BME280;9346;52.006;4.720;2023-02-21T03:13:43;101918.41;;;9.87;100.00
18436;BME280;9346;52.006;4.720;2023-02-21T03:16:15;101916.72;;;9.86;100.00
18436;BME280;9346;52.006;4.720;2023-02-21T03:18:47;101915.88;;;9.86;100.00
18436;BME280;9346;52.006;4.720;2023-02-21T03:21:18;101924.16;;;9.86;100.00
18436;BME280;9346;52.006;4.720;2023-02-21T03:23:49;101918.88;;;9.84;100.00
18436;BME280;9346;52.006;4.720;2023-02-21T03:26:18;101918.63;;;9.86;100.00
18436;BME280;9346;52.006;4.720;2023-02-21T03:28:46;101923.09;;;9.87;100.00
18436;BME280;9346;52.006;4.720;2023-02-21T03:31:16;101921.16;;;9.87;100.00
18436;BME280;9346;52.006;4.720;2023-02-21T03:33:45;101918.41;;;9.87;100.00
18436;BME280;9346;52.006;4.720;2023-02-21T03:36:13;101919.50;;;9.86;100.00
18436;BME280;9346;52.006;4.720;2023-02-21T03:38:42;101914.47;;;9.83;100.00
18436;BME280;9346;52.006;4.720;2023-02-21T03:41:10;101924.63;;;9.83;100.00
18436;BME280;9346;52.006;4.720;2023-02-21T03:43:38;101925.47;;;9.83;100.00
18436;BME280;9346;52.006;4.720;2023-02-21T03:46:05;101925.47;;;9.83;100.00
18436;BME280;9346;52.006;4.720;2023-02-21T03:48:32;101923.81;;;9.82;100.00
18436;BME280;9346;52.006;4.720;2023-02-21T03:51:00;101922.97;;;9.82;100.00
18436;BME280;9346;52.006;4.720;2023-02-21T03:53:27;101921.06;;;9.82;100.00
18436;BME280;9346;52.006;4.720;2023-02-21T03:55:56;101931.81;;;9.84;100.00
18436;BME280;9346;52.006;4.720;2023-02-21T03:58:22;101926.31;;;9.84;100.00
18436;BME280;9346;52.006;4.720;2023-02-21T04:00:49;101920.81;;;9.84;100.00
18436;BME280;9346;52.006;4.720;2023-02-21T04:03:18;101923.34;;;9.85;100.00
18436;BME280;9346;52.006;4.720;2023-02-21T04:05:45;101914.84;;;9.87;100.00
18436;BME280;9346;52.006;4.720;2023-02-21T04:08:12;101911.00;;;9.88;100.00
18436;BME280;9346;52.006;4.720;2023-02-21T04:10:39;101926.66;;;9.87;100.00
18436;BME280;9346;52.006;4.720;2023-02-21T04:13:07;101914.84;;;9.87;100.00
18436;BME280;9346;52.006;4.720;2023-02-21T04:15:34;101911.84;;;9.88;100.00
18436;BME280;9346;52.006;4.720;2023-02-21T04:18:01;101906.56;;;9.87;100.00
18436;BME280;9346;52.006;4.720;2023-02-21T04:20:28;101913.50;;;9.89;100.00
18436;BME280;9346;52.006;4.720;2023-02-21T04:22:55;101919.84;;;9.90;100.00
18436;BME280;9346;52.006;4.720;2023-02-21T04:25:22;101911.84;;;9.88;100.00
18436;BME280;9346;52.006;4.720;2023-02-21T04:27:49;101927.50;;;9.88;100.00
18436;BME280;9346;52.006;4.720;2023-02-21T04:30:18;101921.16;;;9.87;100.00
18436;BME280;9346;52.006;4.720;2023-02-21T04:32:45;101916.72;;;9.86;100.00
18436;BME280;9346;52.006;4.720;2023-02-21T04:35:13;101908.72;;;9.85;100.00
18436;BME280;9346;52.006;4.720;2023-02-21T04:37:40;101909.22;;;9.82;100.00
18436;BME280;9346;52.006;4.720;2023-02-21T04:40:09;101911.97;;;9.82;100.00
18436;BME280;9346;52.006;4.720;2023-02-21T04:42:36;101897.09;;;9.83;100.00
18436;BME280;9346;52.006;4.720;2023-02-21T04:45:03;101899.38;;;9.86;100.00
18436;BME280;9346;52.006;4.720;2023-02-21T04:47:32;101895.31;;;9.88;100.00
18436;BME280;9346;52.006;4.720;2023-02-21T04:49:59;101885.97;;;9.89;100.00
18436;BME280;9346;52.006;4.720;2023-02-21T04:52:26;101891.97;;;9.86;100.00
18436;BME280;9346;52.006;4.720;2023-02-21T04:54:53;101892.81;;;9.87;100.00
18436;BME280;9346;52.006;4.720;2023-02-21T04:57:20;101891.97;;;9.86;100.00
18436;BME280;9346;52.006;4.720;2023-02-21T04:59:46;101895.56;;;9.87;100.00
18436;BME280;9346;52.006;4.720;2023-02-21T05:02:13;101890.88;;;9.87;100.00
18436;BME280;9346;52.006;4.720;2023-02-21T05:04:42;101884.56;;;9.87;100.00
18436;BME280;9346;52.006;4.720;2023-02-21T05:07:09;101881.81;;;9.87;100.00
18436;BME280;9346;52.006;4.720;2023-02-21T05:09:36;101881.81;;;9.87;100.00
18436;BME280;9346;52.006;4.720;2023-02-21T05:12:04;101893.63;;;9.87;100.00
18436;BME280;9346;52.006;4.720;2023-02-21T05:14:35;101899.38;;;9.86;100.00
18436;BME280;9346;52.006;4.720;2023-02-21T05:17:02;101891.97;;;9.86;100.00
18436;BME280;9346;52.006;4.720;2023-02-21T05:19:29;101891.13;;;9.86;100.00
18436;BME280;9346;52.006;4.720;2023-02-21T05:22:00;101889.47;;;9.85;100.00
18436;BME280;9346;52.006;4.720;2023-02-21T05:24:29;101882.03;;;9.85;100.00
18436;BME280;9346;52.006;4.720;2023-02-21T05:26:57;101886.72;;;9.85;100.00
18436;BME280;9346;52.006;4.720;2023-02-21T05:29:24;101890.56;;;9.84;100.00
18436;BME280;9346;52.006;4.720;2023-02-21T05:31:51;101885.03;;;9.84;100.00
18436;BME280;9346;52.006;4.720;2023-02-21T05:34:18;101895.22;;;9.83;100.00
18436;BME280;9346;52.006;4.720;2023-02-21T05:36:45;101898.81;;;9.84;100.00
18436;BME280;9346;52.006;4.720;2023-02-21T05:39:14;101897.09;;;9.83;100.00
18436;BME280;9346;52.006;4.720;2023-02-21T05:41:46;101897.09;;;9.83;100.00
18436;BME280;9346;52.006;4.720;2023-02-21T05:44:13;101890.56;;;9.84;100.00
18436;BME280;9346;52.006;4.720;2023-02-21T05:46:40;101880.88;;;9.81;100.00
18436;BME280;9346;52.006;4.720;2023-02-21T05:49:06;101882.78;;;9.81;100.00
18436;BME280;9346;52.006;4.720;2023-02-21T05:51:34;101885.53;;;9.81;100.00
18436;BME280;9346;52.006;4.720;2023-02-21T05:54:02;101890.78;;;9.82;100.00
18436;BME280;9346;52.006;4.720;2023-02-21T05:56:36;101891.59;;;9.83;100.00
18436;BME280;9346;52.006;4.720;2023-02-21T05:59:03;101896.53;;;9.81;100.00
18436;BME280;9346;52.006;4.720;2023-02-21T06:01:30;101900.38;;;9.80;100.00
18436;BME280;9346;52.006;4.720;2023-02-21T06:03:57;101906.44;;;9.82;100.00
18436;BME280;9346;52.006;4.720;2023-02-21T06:06:24;101897.97;;;9.83;100.00
18436;BME280;9346;52.006;4.720;2023-02-21T06:08:51;101890.31;;;9.85;100.00
18436;BME280;9346;52.006;4.720;2023-02-21T06:11:22;101877.34;;;9.86;100.00
18436;BME280;9346;52.006;4.720;2023-02-21T06:13:51;101898.56;;;9.85;100.00
18436;BME280;9346;52.006;4.720;2023-02-21T06:16:18;101901.31;;;9.85;100.00
18436;BME280;9346;52.006;4.720;2023-02-21T06:18:48;101917.22;;;9.83;100.00
18436;BME280;9346;52.006;4.720;2023-02-21T06:21:16;101910.63;;;9.84;100.00
18436;BME280;9346;52.006;4.720;2023-02-21T06:23:43;101901.31;;;9.85;100.00
18436;BME280;9346;52.006;4.720;2023-02-21T06:26:10;101893.63;;;9.87;100.00
18436;BME280;9346;52.006;4.720;2023-02-21T06:28:38;101897.47;;;9.86;100.00
18436;BME280;9346;52.006;4.720;2023-02-21T06:31:06;101898.31;;;9.87;100.00
18436;BME280;9346;52.006;4.720;2023-02-21T06:33:33;101896.63;;;9.86;100.00
18436;BME280;9346;52.006;4.720;2023-02-21T06:36:03;101909.81;;;9.84;100.00
18436;BME280;9346;52.006;4.720;2023-02-21T06:38:31;101916.38;;;9.83;100.00
18436;BME280;9346;52.006;4.720;2023-02-21T06:40:58;101915.31;;;9.84;100.00
18436;BME280;9346;52.006;4.720;2023-02-21T06:43:25;101911.97;;;9.82;100.00
18436;BME280;9346;52.006;4.720;2023-02-21T06:45:52;101915.56;;;9.82;100.00
18436;BME280;9346;52.006;4.720;2023-02-21T06:48:20;101913.63;;;9.83;100.00
18436;BME280;9346;52.006;4.720;2023-02-21T06:50:47;101910.06;;;9.82;100.00
18436;BME280;9346;52.006;4.720;2023-02-21T06:53:14;101911.72;;;9.83;100.00
18436;BME280;9346;52.006;4.720;2023-02-21T06:55:41;101920.56;;;9.85;100.00
18436;BME280;9346;52.006;4.720;2023-02-21T06:58:08;101913.75;;;9.88;100.00
18436;BME280;9346;52.006;4.720;2023-02-21T07:00:35;101928.34;;;9.88;100.00
18436;BME280;9346;52.006;4.720;2023-02-21T07:03:02;101921.75;;;9.89;100.00
18436;BME280;9346;52.006;4.720;2023-02-21T07:05:30;101928.34;;;9.88;100.00
18436;BME280;9346;52.006;4.720;2023-02-21T07:08:00;101923.41;;;9.90;100.00
18436;BME280;9346;52.006;4.720;2023-02-21T07:10:27;101921.75;;;9.89;100.00
18436;BME280;9346;52.006;4.720;2023-02-21T07:12:54;101911.59;;;9.90;100.00
18436;BME280;9346;52.006;4.720;2023-02-21T07:15:21;101916.25;;;9.89;100.00
18436;BME280;9346;52.006;4.720;2023-02-21T07:17:48;101921.50;;;9.91;100.00
18436;BME280;9346;52.006;4.720;2023-02-21T07:20:16;101923.66;;;9.89;100.00
18436;BME280;9346;52.006;4.720;2023-02-21T07:22:45;101921.75;;;9.89;100.00
18436;BME280;9346;52.006;4.720;2023-02-21T07:25:13;101922.59;;;9.90;100.00
18436;BME280;9346;52.006;4.720;2023-02-21T07:27:41;101921.75;;;9.89;100.00
18436;BME280;9346;52.006;4.720;2023-02-21T07:30:09;101915.16;;;9.90;100.00
18436;BME280;9346;52.006;4.720;2023-02-21T07:32:37;101910.50;;;9.91;100.00
18436;BME280;9346;52.006;4.720;2023-02-21T07:35:05;101912.16;;;9.92;100.00
18436;BME280;9346;52.006;4.720;2023-02-21T07:37:32;101918.75;;;9.91;100.00
18436;BME280;9346;52.006;4.720;2023-02-21T07:40:00;101909.41;;;9.92;100.00
18436;BME280;9346;52.006;4.720;2023-02-21T07:42:32;101919.59;;;9.91;100.00
18436;BME280;9346;52.006;4.720;2023-02-21T07:44:59;101921.03;;;9.94;100.00
18436;BME280;9346;52.006;4.720;2023-02-21T07:47:26;101911.91;;;9.93;100.00
18436;BME280;9346;52.006;4.720;2023-02-21T07:49:54;101915.53;;;9.94;100.00
18436;BME280;9346;52.006;4.720;2023-02-21T07:52:21;101919.69;;;9.96;100.00
18436;BME280;9346;52.006;4.720;2023-02-21T07:54:48;101913.94;;;9.98;100.00
18436;BME280;9346;52.006;4.720;2023-02-21T07:57:17;101920.06;;;10.00;100.00
18436;BME280;9346;52.006;4.720;2023-02-21T07:59:44;101906.88;;;10.02;100.00
18436;BME280;9346;52.006;4.720;2023-02-21T08:02:11;101901.59;;;10.00;100.00
18436;BME280;9346;52.006;4.720;2023-02-21T08:04:38;101927.22;;;10.01;100.00
18436;BME280;9346;52.006;4.720;2023-02-21T08:07:06;101923.88;;;9.99;100.00
18436;BME280;9346;52.006;4.720;2023-02-21T08:09:34;101929.13;;;10.00;100.00
18436;BME280;9346;52.006;4.720;2023-02-21T08:12:02;101918.34;;;9.99;100.00
18436;BME280;9346;52.006;4.720;2023-02-21T08:14:31;101913.38;;;9.96;100.00
18436;BME280;9346;52.006;4.720;2023-02-21T08:16:58;101915.84;;;9.97;100.00
18436;BME280;9346;52.006;4.720;2023-02-21T08:19:25;101915.38;;;10.00;100.00
18436;BME280;9346;52.006;4.720;2023-02-21T08:21:52;101923.13;;;10.03;100.00
18436;BME280;9346;52.006;4.720;2023-02-21T08:24:19;101923.97;;;10.04;100.00
18436;BME280;9346;52.006;4.720;2023-02-21T08:26:46;101936.91;;;10.03;100.00
18436;BME280;9346;52.006;4.720;2023-02-21T08:29:13;101924.47;;;10.01;100.00
18436;BME280;9346;52.006;4.720;2023-02-21T08:31:43;101929.38;;;9.99;100.00
18436;BME280;9346;52.006;4.720;2023-02-21T08:34:11;101932.13;;;9.99;100.00
18436;BME280;9346;52.006;4.720;2023-02-21T08:36:40;101933.56;;;10.01;100.00
18436;BME280;9346;52.006;4.720;2023-02-21T08:39:08;101941.22;;;9.99;100.00
18436;BME280;9346;52.006;4.720;2023-02-21T08:41:36;101938.97;;;9.96;100.00
18436;BME280;9346;52.006;4.720;2023-02-21T08:44:04;101933.69;;;9.95;100.00
18436;BME280;9346;52.006;4.720;2023-02-21T08:46:32;101934.78;;;9.94;100.00
18436;BME280;9346;52.006;4.720;2023-02-21T08:49:00;101929.78;;;9.91;100.00
18436;BME280;9346;52.006;4.720;2023-02-21T08:51:29;101929.16;;;9.89;100.00
18436;BME280;9346;52.006;4.720;2023-02-21T08:53:57;101929.66;;;9.86;100.00
18436;BME280;9346;52.006;4.720;2023-02-21T08:56:26;101923.09;;;9.87;100.00
18436;BME280;9346;52.006;4.720;2023-02-21T08:58:53;101923.09;;;9.87;100.00
18436;BME280;9346;52.006;4.720;2023-02-21T09:01:21;101929.41;;;9.87;100.00
18436;BME280;9346;52.006;4.720;2023-02-21T09:03:48;101926.91;;;9.86;100.00
18436;BME280;9346;52.006;4.720;2023-02-21T09:06:17;101932.16;;;9.87;100.00
18436;BME280;9346;52.006;4.720;2023-02-21T09:08:44;101924.75;;;9.88;100.00
18436;BME280;9346;52.006;4.720;2023-02-21T09:11:11;101924.50;;;9.89;100.00
18436;BME280;9346;52.006;4.720;2023-02-21T09:13:38;101915.41;;;9.89;100.00
18436;BME280;9346;52.006;4.720;2023-02-21T09:16:06;101921.75;;;9.89;100.00
18436;BME280;9346;52.006;4.720;2023-02-21T09:18:33;101924.25;;;9.91;100.00
18436;BME280;9346;52.006;4.720;2023-02-21T09:21:00;101921.03;;;9.94;100.00
18436;BME280;9346;52.006;4.720;2023-02-21T09:23:29;101912.16;;;9.92;100.00
18436;BME280;9346;52.006;4.720;2023-02-21T09:25:57;101913.84;;;9.93;100.00
18436;BME280;9346;52.006;4.720;2023-02-21T09:28:24;101910.88;;;9.94;100.00
18436;BME280;9346;52.006;4.720;2023-02-21T09:30:51;101913.63;;;9.94;100.00
18436;BME280;9346;52.006;4.720;2023-02-21T09:33:18;101916.38;;;9.94;100.00
18436;BME280;9346;52.006;4.720;2023-02-21T09:35:45;101916.69;;;9.98;100.00
18436;BME280;9346;52.006;4.720;2023-02-21T09:38:12;101903.78;;;9.98;100.00
18436;BME280;9346;52.006;4.720;2023-02-21T09:40:43;101905.19;;;10.01;100.00
18436;BME280;9346;52.006;4.720;2023-02-21T09:43:13;101898.13;;;10.05;100.00
18436;BME280;9346;52.006;4.720;2023-02-21T09:45:42;101896.00;;;10.07;100.00
18436;BME280;9346;52.006;4.720;2023-02-21T09:48:12;101903.41;;;10.06;100.00
18436;BME280;9346;52.006;4.720;2023-02-21T09:50:43;101888.78;;;10.06;100.00
18436;BME280;9346;52.006;4.720;2023-02-21T09:53:16;101895.38;;;10.05;100.00
18436;BME280;9346;52.006;4.720;2023-02-21T09:55:47;101890.69;;;10.05;100.00
18436;BME280;9346;52.006;4.720;2023-02-21T09:58:17;101893.69;;;10.04;100.00
18436;BME280;9346;52.006;4.720;2023-02-21T10:00:46;101901.13;;;10.03;100.00
18436;BME280;9346;52.006;4.720;2023-02-21T10:03:31;101903.28;;;10.01;100.00
18436;BME280;9346;52.006;4.720;2023-02-21T10:06:11;101898.59;;;10.02;100.00
18436;BME280;9346;52.006;4.720;2023-02-21T10:08:49;101892.53;;;10.00;100.00
18436;BME280;9346;52.006;4.720;2023-02-21T10:11:39;101894.19;;;10.01;100.00
18436;BME280;9346;52.006;4.720;2023-02-21T10:14:17;101895.53;;;9.98;100.00
18436;BME280;9346;52.006;4.720;2023-02-21T10:16:51;101898.53;;;9.97;100.00
18436;BME280;9346;52.006;4.720;2023-02-21T10:19:23;101889.66;;;9.95;100.00
18436;BME280;9346;52.006;4.720;2023-02-21T10:21:54;101893.00;;;9.97;100.00
18436;BME280;9346;52.006;4.720;2023-02-21T10:24:26;101891.94;;;9.98;100.00
18436;BME280;9346;52.006;4.720;2023-02-21T10:26:58;101893.59;;;9.99;100.00
18436;BME280;9346;52.006;4.720;2023-02-21T10:29:37;101893.59;;;9.99;100.00
18436;BME280;9346;52.006;4.720;2023-02-21T10:32:05;101887.25;;;9.98;100.00
18436;BME280;9346;52.006;4.720;2023-02-21T10:34:33;101888.09;;;9.99;100.00
18436;BME280;9346;52.006;4.720;2023-02-21T10:37:05;101882.00;;;9.97;100.00
18436;BME280;9346;52.006;4.720;2023-02-21T10:39:43;101888.31;;;9.97;100.00
18436;BME280;9346;52.006;4.720;2023-02-21T10:42:19;101890.84;;;9.99;100.00
18436;BME280;9346;52.006;4.720;2023-02-21T10:44:52;101890.34;;;10.02;100.00
18436;BME280;9346;52.006;4.720;2023-02-21T10:47:24;101886.03;;;10.06;100.00
18436;BME280;9346;52.006;4.720;2023-02-21T10:49:59;101881.03;;;10.03;100.00
18436;BME280;9346;52.006;4.720;2023-02-21T10:52:27;101887.03;;;10.00;100.00
18436;BME280;9346;52.006;4.720;2023-02-21T10:55:01;101886.53;;;10.03;100.00
18436;BME280;9346;52.006;4.720;2023-02-21T10:57:32;101887.09;;;10.05;100.00
18436;BME280;9346;52.006;4.720;2023-02-21T11:00:01;101887.75;;;10.07;100.00
18436;BME280;9346;52.006;4.720;2023-02-21T11:02:36;101890.69;;;10.05;100.00
18436;BME280;9346;52.006;4.720;2023-02-21T11:05:10;101892.41;;;10.06;100.00
18436;BME280;9346;52.006;4.720;2023-02-21T11:07:38;101888.59;;;10.07;100.00
18436;BME280;9346;52.006;4.720;2023-02-21T11:10:23;101887.94;;;10.05;100.00
18436;BME280;9346;52.006;4.720;2023-02-21T11:13:03;101882.00;;;10.08;100.00
18436;BME280;9346;52.006;4.720;2023-02-21T11:15:31;101887.25;;;10.10;100.00
18436;BME280;9346;52.006;4.720;2023-02-21T11:18:10;101888.41;;;10.14;100.00
18436;BME280;9346;52.006;4.720;2023-02-21T11:20:38;101876.56;;;10.13;100.00
18436;BME280;9346;52.006;4.720;2023-02-21T11:23:17;101873.06;;;10.18;100.00
18436;BME280;9346;52.006;4.720;2023-02-21T11:25:45;101879.78;;;10.22;100.00
18436;BME280;9346;52.006;4.720;2023-02-21T11:28:19;101874.03;;;10.23;100.00
18436;BME280;9346;52.006;4.720;2023-02-21T11:30:49;101878.09;;;10.21;100.00
18436;BME280;9346;52.006;4.720;2023-02-21T11:33:29;101867.69;;;10.23;100.00
18436;BME280;9346;52.006;4.720;2023-02-21T11:36:08;101868.28;;;10.25;100.00
18436;BME280;9346;52.006;4.720;2023-02-21T11:38:38;101864.69;;;10.24;100.00
18436;BME280;9346;52.006;4.720;2023-02-21T11:41:15;101857.25;;;10.25;100.00
18436;BME280;9346;52.006;4.720;2023-02-21T11:43:46;101858.91;;;10.26;100.00
18436;BME280;9346;52.006;4.720;2023-02-21T11:46:18;101857.59;;;10.28;100.00
18436;BME280;9346;52.006;4.720;2023-02-21T11:48:54;101859.25;;;10.29;100.00
18436;BME280;9346;52.006;4.720;2023-02-21T11:51:30;101855.06;;;10.27;100.00
18436;BME280;9346;52.006;4.720;2023-02-21T11:53:58;101851.75;;;10.25;100.00
18436;BME280;9346;52.006;4.720;2023-02-21T11:56:45;101852.00;;;10.23;100.00
18436;BME280;9346;52.006;4.720;2023-02-21T11:59:33;101847.66;;;10.27;100.00
18436;BME280;9346;52.006;4.720;2023-02-21T12:02:24;101851.59;;;10.31;100.00
18436;BME280;9346;52.006;4.720;2023-02-21T12:05:07;101846.44;;;10.35;100.00
18436;BME280;9346;52.006;4.720;2023-02-21T12:07:44;101842.09;;;10.39;100.00
18436;BME280;9346;52.006;4.720;2023-02-21T12:10:30;101841.59;;;10.42;100.00
18436;BME280;9346;52.006;4.720;2023-02-21T12:16:33;101839.31;;;10.39;100.00
18436;BME280;9346;52.006;4.720;2023-02-21T12:19:14;101841.72;;;10.35;100.00
18436;BME280;9346;52.006;4.720;2023-02-21T12:22:03;101833.31;;;10.42;100.00
18436;BME280;9346;52.006;4.720;2023-02-21T12:24:55;101837.84;;;10.48;100.00
18436;BME280;9346;52.006;4.720;2023-02-21T12:27:33;101826.56;;;10.49;100.00
18436;BME280;9346;52.006;4.720;2023-02-21T12:30:16;101824.56;;;10.45;100.00
18436;BME280;9346;52.006;4.720;2023-02-21T12:32:56;101830.56;;;10.42;100.00
18436;BME280;9346;52.006;4.720;2023-02-21T12:35:42;101827.22;;;10.40;100.00
18436;BME280;9346;52.006;4.720;2023-02-21T12:38:19;101821.97;;;10.38;100.00
18436;BME280;9346;52.006;4.720;2023-02-21T12:40:53;101815.38;;;10.39;100.00
18436;BME280;9346;52.006;4.720;2023-02-21T12:43:37;101814.03;;;10.42;100.00
18436;BME280;9346;52.006;4.720;2023-02-21T12:46:13;101811.84;;;10.44;100.00
18436;BME280;9346;52.006;4.720;2023-02-21T12:48:48;101819.56;;;10.42;100.00
18436;BME280;9346;52.006;4.720;2023-02-21T12:51:21;101809.03;;;10.39;100.00
18436;BME280;9346;52.006;4.720;2023-02-21T12:53:54;101813.38;;;10.35;100.00
18436;BME280;9346;52.006;4.720;2023-02-21T12:56:24;101804.75;;;10.31;100.00
18436;BME280;9346;52.006;4.720;2023-02-21T12:58:57;101805.38;;;10.33;100.00
18436;BME280;9346;52.006;4.720;2023-02-21T13:01:29;101811.69;;;10.34;100.00
18436;BME280;9346;52.006;4.720;2023-02-21T13:04:07;101809.53;;;10.36;100.00
18436;BME280;9346;52.006;4.720;2023-02-21T13:06:42;101812.88;;;10.38;100.00
18436;BME280;9346;52.006;4.720;2023-02-21T13:09:19;101806.78;;;10.36;100.00
18436;BME280;9346;52.006;4.720;2023-02-21T13:11:53;101799.84;;;10.33;100.00
18436;BME280;9346;52.006;4.720;2023-02-21T13:14:24;101800.66;;;10.34;100.00
18436;BME280;9346;52.006;4.720;2023-02-21T13:16:52;101799.84;;;10.33;100.00
18436;BME280;9346;52.006;4.720;2023-02-21T13:19:22;101800.66;;;10.34;100.00
18436;BME280;9346;52.006;4.720;2023-02-21T13:22:01;101801.50;;;10.34;100.00
18436;BME280;9346;52.006;4.720;2023-02-21T13:24:47;101796.34;;;10.38;100.00
18436;BME280;9346;52.006;4.720;2023-02-21T13:27:48;101802.19;;;10.41;100.00
18436;BME280;9346;52.006;4.720;2023-02-21T13:30:21;101795.00;;;10.40;100.00
18436;BME280;9346;52.006;4.720;2023-02-21T13:32:52;101792.50;;;10.39;100.00
18436;BME280;9346;52.006;4.720;2023-02-21T13:35:32;101785.09;;;10.39;100.00
18436;BME280;9346;52.006;4.720;2023-02-21T13:38:01;101782.34;;;10.39;100.00